Address 0x1371d5d9e397663089e2076b1463b1bc7390477a

 
 
Txn Hash Method
Block
From
To
Value [Txn Fee]
0xc527f281a413978bb26f56f30d1106b6617edea9210b7827d0d206680c1e3ad9Transfer Stake T...315156342022-08-04 15:44:5752 days 21 hrs ago0x1371d5d9e397663089e2076b1463b1bc7390477aOUT 0x8c96105ea574727e94d9c199c632128f1ca584cf0 MATIC0.006512040005 30.000000024
0x5d1683461a696d4e13a9d89648176ea4f6a5fe1ba8e4cbcdd2d09228e13b8e2cTransfer Stake T...315152632022-08-04 15:30:0352 days 22 hrs ago0x1371d5d9e397663089e2076b1463b1bc7390477aOUT 0xffb71361dd8fc3ef0831871ec8dd51b413ed093c0 MATIC0.006242291914 32.366960045
0xf1ac3d6a0c5c3fb559d6ad81031083338f1ee71b7e41773242c6e58896456f9dNotify Vote312826802022-07-29 16:38:5958 days 21 hrs ago0x1371d5d9e397663089e2076b1463b1bc7390477aOUT 0x765a3045902b164da1a7619bec58de64cf7bdfe20 MATIC0.001063659398 45.298726583
0xa1ca8ecd968f7b00ce48c3d598c8fcd2f5a00f728b08e81ee399bbf53330a12dProxy Set Delega...312822422022-07-29 16:21:5158 days 21 hrs ago0x1371d5d9e397663089e2076b1463b1bc7390477aOUT 0xab69d8ce8b5a1b79a0bbc465764c52e5e2edc6770 MATIC0.00700495086 33.65402583
0x4f6ff269059a0681f160ca399afa66c8bb947bfcd8b7d5633ae5d3aacbd4d6b8Update Pools312821772022-07-29 16:19:3758 days 21 hrs ago0x1371d5d9e397663089e2076b1463b1bc7390477aOUT 0xab69d8ce8b5a1b79a0bbc465764c52e5e2edc6770 MATIC0.006177002007 35.677991403
0x9866b7158dbf02b97353db5af69d8343cfaff87a0e80f9c056124917a07ac094Vote Treasury Tr...312815272022-07-29 15:57:1358 days 21 hrs ago0x1371d5d9e397663089e2076b1463b1bc7390477aOUT 0xddd4982e3e9e5c5c489321d2143b8a027f5351120 MATIC0.002418954831 34.571807963
0x5100321460c4bcd6bbb347440d1807386def746b945b27b35c4b2f24f58c19ceVote Treasury Tr...312814342022-07-29 15:54:0358 days 21 hrs ago0x1371d5d9e397663089e2076b1463b1bc7390477aOUT 0xddd4982e3e9e5c5c489321d2143b8a027f5351120 MATIC0.002722134245 31.2641037
0x95f1d26af898ab193fc23ae6af6e6fe1cf687ded32c460ced92597a17e894f88Initiate Treasur...312812942022-07-29 15:49:1558 days 21 hrs ago0x1371d5d9e397663089e2076b1463b1bc7390477aOUT 0xddd4982e3e9e5c5c489321d2143b8a027f5351120 MATIC0.01279929293 37.880394719
0x43ed08a48cdabfb56c495ea703d2ae8d499bcdf9027efd557fb633f4e7d9a5dcPropose Governor...312807802022-07-29 15:31:2858 days 22 hrs ago0x1371d5d9e397663089e2076b1463b1bc7390477aOUT 0xdf47e7a036a6a85f92898176b5a8b4b4b9fbf25a0 MATIC0.005423065849 33.096333078
0xbbdc87ce6426b24c2a29bd09c3a1222790cda096e2543ceaa3b8103152efe3f6Execute Set Call...312793042022-07-29 14:36:2258 days 23 hrs ago0x1371d5d9e397663089e2076b1463b1bc7390477aOUT 0xebd2e542f593d8e03543661bcc70ad2474e6dbad0 MATIC0.006897961369 53.596380549
0x2b4e46f2a354b0d03373728122714cc065c8716e6a4845374a72b7d84a3d98c5Propose Gov Tax312789612022-07-29 14:22:2458 days 23 hrs ago0x1371d5d9e397663089e2076b1463b1bc7390477aOUT 0xdf47e7a036a6a85f92898176b5a8b4b4b9fbf25a0 MATIC0.006542092134 37.570808289
0x029baa3018bc8ec98a52e1551040d4138049a56c1d6aa6be9fb2cd1cb98ee3e2Initiate Proposa...312765832022-07-29 12:58:3159 days 43 mins ago0x1371d5d9e397663089e2076b1463b1bc7390477aOUT 0xebd2e542f593d8e03543661bcc70ad2474e6dbad0 MATIC0.006027011458 30.612925054
0x51bc7987baa1aa34f37f766baac12a9763a3dac36b0360af8ec803646db078f7Propose Governor...312763152022-07-29 12:48:0559 days 54 mins ago0x1371d5d9e397663089e2076b1463b1bc7390477aOUT 0xdf47e7a036a6a85f92898176b5a8b4b4b9fbf25a0 MATIC0.008650664348 47.067431013
0xb32b4b60a1179835230c30975f85a3310a06a18e62a524d2ff4a75a40b19efabInitiate Farm Pr...312753192022-07-29 12:10:4359 days 1 hr ago0x1371d5d9e397663089e2076b1463b1bc7390477aOUT 0xdf47e7a036a6a85f92898176b5a8b4b4b9fbf25a0 MATIC0.00576541166 30.000372884
0x23ce57fb75ef05099fd1135841429045a9dfa12e170294b7648098238591f2f9Deposit312740642022-07-29 11:23:1659 days 2 hrs ago0x1371d5d9e397663089e2076b1463b1bc7390477aOUT 0x605c5aa14bdbf0d50a99836e7909c631cf3c8d460 MATIC0.006507924361 31.943555069
0x60d8d011535ab42b52b9f092861840b09b6bd31049f253c32c458d7875f9c00bDeposit312740452022-07-29 11:22:3459 days 2 hrs ago0x1371d5d9e397663089e2076b1463b1bc7390477aOUT 0x30019481fc501afa449781ac671103feb0d6363c0 MATIC0.006517508921 31.990600012
0xd4c561ad602a6bbe7155ab20521f9219e1fd54dce094bcb53815ad1cb78c8e66Deposit312740312022-07-29 11:22:0659 days 2 hrs ago0x1371d5d9e397663089e2076b1463b1bc7390477aOUT 0x1f8a5d98f1e2f10e93331d27cf22ed7985ef6a120 MATIC0.00671908136 32.980000002
0x5cb946ae6ccc0516a03fb019c60f42c0e24237e3910f7f10705fd62d06317decDeposit312740112022-07-29 11:21:2659 days 2 hrs ago0x1371d5d9e397663089e2076b1463b1bc7390477aOUT 0x9a9aef66624c3fa77daacca9b51de307fa09bd500 MATIC0.00612622124 30.070000001
0x3c28f60db2eab2dc07f0db684efc956161695e7a7942aee67a9f65157141c836Deposit312739892022-07-29 11:20:4259 days 2 hrs ago0x1371d5d9e397663089e2076b1463b1bc7390477aOUT 0xffb71361dd8fc3ef0831871ec8dd51b413ed093c0 MATIC0.006111960003 30.000000016
0xe2e2e1be354ea47c6c766c7c40971a5f4c6ce1b385b0b2ce511990f1d601ddb0Vote Delay Befor...312718832022-07-29 10:06:0759 days 3 hrs ago0x1371d5d9e397663089e2076b1463b1bc7390477aOUT 0xebd2e542f593d8e03543661bcc70ad2474e6dbad0 MATIC0.002305830001 30.000000017
0xed4ba0ca83077af6787277c97ad9cb5d9d3bb4842256b7401dcc5e7fcead2a7cVote Set Min Dep...312718592022-07-29 10:05:1559 days 3 hrs ago0x1371d5d9e397663089e2076b1463b1bc7390477aOUT 0xebd2e542f593d8e03543661bcc70ad2474e6dbad0 MATIC0.00178722 30.000000016
0x63358c874532cc20e7cc025dd754ab155779c950afd9f9111f533df7361a27edPropose Set Min ...312708382022-07-29 9:30:0359 days 4 hrs ago0x1371d5d9e397663089e2076b1463b1bc7390477aOUT 0xebd2e542f593d8e03543661bcc70ad2474e6dbad0 MATIC0.005977867503 32.010000019
0xc6068688de06ec84b740b523578ab5b6bd170b4051c7eb362eb2a17195632bcfInitiate Delay B...312703962022-07-29 9:14:5159 days 4 hrs ago0x1371d5d9e397663089e2076b1463b1bc7390477aOUT 0xebd2e542f593d8e03543661bcc70ad2474e6dbad0 MATIC0.004613220002 30.000000017
0x7c4c3e112ba2b67992ba3573be6ef099db9ec51760450518bda3d27a9176ac5fInitiate Set Min...312699592022-07-29 8:59:4859 days 4 hrs ago0x1371d5d9e397663089e2076b1463b1bc7390477aOUT 0xebd2e542f593d8e03543661bcc70ad2474e6dbad0 MATIC0.004837830011 30.000000071
0x061f14ac886a409d90a8a56998ab1037d659c6abc78218a9921a26487b312c76Update Maximum V...312699132022-07-29 8:58:1259 days 4 hrs ago0x1371d5d9e397663089e2076b1463b1bc7390477aOUT 0xd1b808474293be15aaec3b95f813d97d4c2adfb90 MATIC0.001728420007 30.000000131
[ Download CSV Export 
Parent Txn Hash Block From To Value
Loading

Contract Name:
0 MATIC

Compiler Version
0

Optimization Enabled:
0 MATIC

Other Settings:
-NA-
Block Transaction Gas Used Reward
Age Block Fee Address BC Fee Address Voting Power Jailed Incoming
Block Uncle Number Difficulty Gas Used Reward
Loading
Loading
Make sure to use the "Vote Down" button for any spammy posts, and the "Vote Up" for interesting conversations.